sensor_id;sensor_type;location;lat;lon;timestamp;P1;durP1;ratioP1;P2;durP2;ratioP2
2724;SDS011;1370;52.596;13.112;2023-04-03T00:00:51;2.43;;;2.10;;
2724;SDS011;1370;52.596;13.112;2023-04-03T00:03:17;2.33;;;1.70;;
2724;SDS011;1370;52.596;13.112;2023-04-03T00:05:43;6.20;;;1.80;;
2724;SDS011;1370;52.596;13.112;2023-04-03T00:08:08;7.73;;;2.17;;
2724;SDS011;1370;52.596;13.112;2023-04-03T00:10:35;7.07;;;2.80;;
2724;SDS011;1370;52.596;13.112;2023-04-03T00:13:01;2.30;;;2.10;;
2724;SDS011;1370;52.596;13.112;2023-04-03T00:15:26;5.07;;;2.30;;
2724;SDS011;1370;52.596;13.112;2023-04-03T00:17:52;7.33;;;2.10;;
2724;SDS011;1370;52.596;13.112;2023-04-03T00:20:17;7.13;;;1.83;;
2724;SDS011;1370;52.596;13.112;2023-04-03T00:22:42;5.70;;;2.50;;
2724;SDS011;1370;52.596;13.112;2023-04-03T00:25:08;3.50;;;2.70;;
2724;SDS011;1370;52.596;13.112;2023-04-03T00:27:35;5.70;;;1.83;;
2724;SDS011;1370;52.596;13.112;2023-04-03T00:30:02;2.67;;;2.47;;
2724;SDS011;1370;52.596;13.112;2023-04-03T00:32:27;2.20;;;1.53;;
2724;SDS011;1370;52.596;13.112;2023-04-03T00:34:52;7.97;;;1.63;;
2724;SDS011;1370;52.596;13.112;2023-04-03T00:37:18;3.47;;;2.07;;
2724;SDS011;1370;52.596;13.112;2023-04-03T00:39:43;7.43;;;2.93;;
2724;SDS011;1370;52.596;13.112;2023-04-03T00:42:08;4.07;;;1.83;;
2724;SDS011;1370;52.596;13.112;2023-04-03T00:46:59;2.37;;;1.90;;
2724;SDS011;1370;52.596;13.112;2023-04-03T00:49:25;6.57;;;2.37;;
2724;SDS011;1370;52.596;13.112;2023-04-03T00:51:51;11.40;;;2.27;;
2724;SDS011;1370;52.596;13.112;2023-04-03T00:54:16;4.93;;;2.67;;
2724;SDS011;1370;52.596;13.112;2023-04-03T00:56:42;2.10;;;1.83;;
2724;SDS011;1370;52.596;13.112;2023-04-03T00:59:10;2.33;;;1.90;;
2724;SDS011;1370;52.596;13.112;2023-04-03T01:01:38;2.73;;;1.83;;
2724;SDS011;1370;52.596;13.112;2023-04-03T01:04:03;2.00;;;1.60;;
2724;SDS011;1370;52.596;13.112;2023-04-03T01:06:32;4.73;;;2.37;;
2724;SDS011;1370;52.596;13.112;2023-04-03T01:08:59;7.80;;;2.23;;
2724;SDS011;1370;52.596;13.112;2023-04-03T01:11:25;3.83;;;2.20;;
2724;SDS011;1370;52.596;13.112;2023-04-03T01:13:51;7.20;;;2.40;;
2724;SDS011;1370;52.596;13.112;2023-04-03T01:16:16;6.40;;;2.43;;
2724;SDS011;1370;52.596;13.112;2023-04-03T01:18:41;2.20;;;2.00;;
2724;SDS011;1370;52.596;13.112;2023-04-03T01:21:18;5.33;;;2.03;;
2724;SDS011;1370;52.596;13.112;2023-04-03T01:26:25;1.63;;;1.53;;
2724;SDS011;1370;52.596;13.112;2023-04-03T01:28:50;4.00;;;1.80;;
2724;SDS011;1370;52.596;13.112;2023-04-03T01:31:26;6.07;;;2.17;;
2724;SDS011;1370;52.596;13.112;2023-04-03T01:33:53;4.83;;;2.37;;
2724;SDS011;1370;52.596;13.112;2023-04-03T01:36:21;1.70;;;1.53;;
2724;SDS011;1370;52.596;13.112;2023-04-03T01:38:49;2.57;;;2.37;;
2724;SDS011;1370;52.596;13.112;2023-04-03T01:41:15;3.30;;;2.20;;
2724;SDS011;1370;52.596;13.112;2023-04-03T01:43:40;3.13;;;2.10;;
2724;SDS011;1370;52.596;13.112;2023-04-03T01:46:06;2.10;;;1.90;;
2724;SDS011;1370;52.596;13.112;2023-04-03T01:48:32;5.93;;;1.70;;
2724;SDS011;1370;52.596;13.112;2023-04-03T01:50:57;7.43;;;2.13;;
2724;SDS011;1370;52.596;13.112;2023-04-03T01:53:23;2.03;;;1.80;;
2724;SDS011;1370;52.596;13.112;2023-04-03T01:55:48;2.57;;;2.40;;
2724;SDS011;1370;52.596;13.112;2023-04-03T01:58:13;3.20;;;2.23;;
2724;SDS011;1370;52.596;13.112;2023-04-03T02:00:39;6.77;;;2.37;;
2724;SDS011;1370;52.596;13.112;2023-04-03T02:03:04;7.20;;;2.20;;
2724;SDS011;1370;52.596;13.112;2023-04-03T02:05:30;3.00;;;2.33;;
2724;SDS011;1370;52.596;13.112;2023-04-03T02:07:55;8.63;;;2.57;;
2724;SDS011;1370;52.596;13.112;2023-04-03T02:10:21;6.47;;;2.43;;
2724;SDS011;1370;52.596;13.112;2023-04-03T02:12:46;2.70;;;2.10;;
2724;SDS011;1370;52.596;13.112;2023-04-03T02:15:11;4.03;;;1.90;;
2724;SDS011;1370;52.596;13.112;2023-04-03T02:17:37;8.00;;;2.20;;
2724;SDS011;1370;52.596;13.112;2023-04-03T02:20:03;3.97;;;3.57;;
2724;SDS011;1370;52.596;13.112;2023-04-03T02:22:29;4.00;;;1.87;;
2724;SDS011;1370;52.596;13.112;2023-04-03T02:24:54;7.53;;;2.37;;
2724;SDS011;1370;52.596;13.112;2023-04-03T02:27:20;7.40;;;2.00;;
2724;SDS011;1370;52.596;13.112;2023-04-03T02:29:45;3.80;;;2.30;;
2724;SDS011;1370;52.596;13.112;2023-04-03T02:32:10;5.50;;;2.30;;
2724;SDS011;1370;52.596;13.112;2023-04-03T02:34:35;3.67;;;2.30;;
2724;SDS011;1370;52.596;13.112;2023-04-03T02:37:01;4.10;;;2.40;;
2724;SDS011;1370;52.596;13.112;2023-04-03T02:39:26;3.10;;;2.07;;
2724;SDS011;1370;52.596;13.112;2023-04-03T02:41:52;4.27;;;1.93;;
2724;SDS011;1370;52.596;13.112;2023-04-03T02:44:17;9.90;;;2.30;;
2724;SDS011;1370;52.596;13.112;2023-04-03T02:46:43;5.20;;;2.20;;
2724;SDS011;1370;52.596;13.112;2023-04-03T02:49:09;2.83;;;1.67;;
2724;SDS011;1370;52.596;13.112;2023-04-03T02:51:34;3.70;;;2.33;;
2724;SDS011;1370;52.596;13.112;2023-04-03T02:53:59;8.73;;;2.10;;
2724;SDS011;1370;52.596;13.112;2023-04-03T02:56:25;3.30;;;1.93;;
2724;SDS011;1370;52.596;13.112;2023-04-03T02:58:51;4.97;;;2.47;;
2724;SDS011;1370;52.596;13.112;2023-04-03T03:01:17;1.80;;;1.60;;
2724;SDS011;1370;52.596;13.112;2023-04-03T03:03:42;5.97;;;1.87;;
2724;SDS011;1370;52.596;13.112;2023-04-03T03:06:12;4.50;;;2.03;;
2724;SDS011;1370;52.596;13.112;2023-04-03T03:08:39;4.63;;;2.93;;
2724;SDS011;1370;52.596;13.112;2023-04-03T03:11:05;2.10;;;2.00;;
2724;SDS011;1370;52.596;13.112;2023-04-03T03:13:31;3.13;;;1.40;;
2724;SDS011;1370;52.596;13.112;2023-04-03T03:15:56;3.80;;;1.97;;
2724;SDS011;1370;52.596;13.112;2023-04-03T03:18:22;12.13;;;2.93;;
2724;SDS011;1370;52.596;13.112;2023-04-03T03:20:51;4.13;;;1.80;;
2724;SDS011;1370;52.596;13.112;2023-04-03T03:23:17;3.47;;;1.83;;
2724;SDS011;1370;52.596;13.112;2023-04-03T03:25:42;5.53;;;1.83;;
2724;SDS011;1370;52.596;13.112;2023-04-03T03:28:07;3.03;;;2.13;;
2724;SDS011;1370;52.596;13.112;2023-04-03T03:30:33;3.17;;;1.73;;
2724;SDS011;1370;52.596;13.112;2023-04-03T03:32:58;2.57;;;1.47;;
2724;SDS011;1370;52.596;13.112;2023-04-03T03:35:24;5.23;;;2.17;;
2724;SDS011;1370;52.596;13.112;2023-04-03T03:37:49;5.57;;;1.77;;
2724;SDS011;1370;52.596;13.112;2023-04-03T03:40:14;3.50;;;2.20;;
2724;SDS011;1370;52.596;13.112;2023-04-03T03:42:40;4.43;;;1.90;;
2724;SDS011;1370;52.596;13.112;2023-04-03T03:45:05;4.30;;;2.40;;
2724;SDS011;1370;52.596;13.112;2023-04-03T03:47:31;6.37;;;1.70;;
2724;SDS011;1370;52.596;13.112;2023-04-03T03:49:56;2.97;;;1.47;;
2724;SDS011;1370;52.596;13.112;2023-04-03T03:52:22;2.10;;;1.67;;
2724;SDS011;1370;52.596;13.112;2023-04-03T03:54:47;3.90;;;2.10;;
2724;SDS011;1370;52.596;13.112;2023-04-03T03:57:12;5.63;;;3.07;;
2724;SDS011;1370;52.596;13.112;2023-04-03T03:59:38;3.03;;;2.77;;
2724;SDS011;1370;52.596;13.112;2023-04-03T04:02:05;7.10;;;2.20;;
2724;SDS011;1370;52.596;13.112;2023-04-03T04:04:30;2.63;;;1.60;;
2724;SDS011;1370;52.596;13.112;2023-04-03T04:06:55;3.53;;;2.30;;
2724;SDS011;1370;52.596;13.112;2023-04-03T04:09:21;3.33;;;2.10;;
2724;SDS011;1370;52.596;13.112;2023-04-03T04:11:46;3.93;;;1.70;;
2724;SDS011;1370;52.596;13.112;2023-04-03T04:14:11;5.73;;;2.10;;
2724;SDS011;1370;52.596;13.112;2023-04-03T04:16:38;4.83;;;2.03;;
2724;SDS011;1370;52.596;13.112;2023-04-03T04:19:03;6.27;;;1.93;;
2724;SDS011;1370;52.596;13.112;2023-04-03T04:21:29;3.00;;;2.03;;
2724;SDS011;1370;52.596;13.112;2023-04-03T04:23:54;5.83;;;1.83;;
2724;SDS011;1370;52.596;13.112;2023-04-03T04:26:19;2.10;;;1.50;;
2724;SDS011;1370;52.596;13.112;2023-04-03T04:28:46;4.07;;;2.10;;
2724;SDS011;1370;52.596;13.112;2023-04-03T04:31:11;7.13;;;1.90;;
2724;SDS011;1370;52.596;13.112;2023-04-03T04:33:36;9.93;;;3.13;;
2724;SDS011;1370;52.596;13.112;2023-04-03T04:36:01;3.10;;;1.87;;
2724;SDS011;1370;52.596;13.112;2023-04-03T04:38:27;9.43;;;2.53;;
2724;SDS011;1370;52.596;13.112;2023-04-03T04:40:52;7.73;;;1.53;;
2724;SDS011;1370;52.596;13.112;2023-04-03T04:43:17;4.97;;;2.17;;
2724;SDS011;1370;52.596;13.112;2023-04-03T04:45:43;4.73;;;1.90;;
2724;SDS011;1370;52.596;13.112;2023-04-03T04:48:08;8.87;;;2.20;;
2724;SDS011;1370;52.596;13.112;2023-04-03T04:50:33;7.23;;;3.20;;
2724;SDS011;1370;52.596;13.112;2023-04-03T04:52:59;5.03;;;1.70;;
2724;SDS011;1370;52.596;13.112;2023-04-03T04:55:24;2.30;;;2.10;;
2724;SDS011;1370;52.596;13.112;2023-04-03T04:57:49;6.27;;;2.03;;
2724;SDS011;1370;52.596;13.112;2023-04-03T05:00:15;3.70;;;2.50;;
2724;SDS011;1370;52.596;13.112;2023-04-03T05:02:40;4.60;;;1.90;;
2724;SDS011;1370;52.596;13.112;2023-04-03T05:05:06;4.10;;;2.17;;
2724;SDS011;1370;52.596;13.112;2023-04-03T05:07:32;2.27;;;1.97;;
2724;SDS011;1370;52.596;13.112;2023-04-03T05:09:57;3.23;;;2.20;;
2724;SDS011;1370;52.596;13.112;2023-04-03T05:12:23;4.00;;;3.53;;
2724;SDS011;1370;52.596;13.112;2023-04-03T05:14:48;10.80;;;2.70;;
2724;SDS011;1370;52.596;13.112;2023-04-03T05:17:13;6.40;;;3.00;;
2724;SDS011;1370;52.596;13.112;2023-04-03T05:19:39;4.90;;;2.67;;
2724;SDS011;1370;52.596;13.112;2023-04-03T05:22:04;3.77;;;1.90;;
2724;SDS011;1370;52.596;13.112;2023-04-03T05:24:30;6.40;;;1.90;;
2724;SDS011;1370;52.596;13.112;2023-04-03T05:26:55;3.60;;;1.57;;
2724;SDS011;1370;52.596;13.112;2023-04-03T05:29:20;2.70;;;2.50;;
2724;SDS011;1370;52.596;13.112;2023-04-03T05:31:48;3.47;;;2.00;;
2724;SDS011;1370;52.596;13.112;2023-04-03T05:34:14;3.80;;;2.00;;
2724;SDS011;1370;52.596;13.112;2023-04-03T05:36:39;5.23;;;1.60;;
2724;SDS011;1370;52.596;13.112;2023-04-03T05:39:05;9.23;;;1.90;;
2724;SDS011;1370;52.596;13.112;2023-04-03T05:41:30;3.37;;;2.33;;
2724;SDS011;1370;52.596;13.112;2023-04-03T05:43:55;8.90;;;1.90;;
2724;SDS011;1370;52.596;13.112;2023-04-03T05:46:21;3.50;;;2.40;;
2724;SDS011;1370;52.596;13.112;2023-04-03T05:48:46;3.87;;;2.10;;
2724;SDS011;1370;52.596;13.112;2023-04-03T05:51:16;4.00;;;2.27;;
2724;SDS011;1370;52.596;13.112;2023-04-03T05:53:47;2.80;;;2.60;;
2724;SDS011;1370;52.596;13.112;2023-04-03T05:56:12;11.53;;;3.63;;
2724;SDS011;1370;52.596;13.112;2023-04-03T05:58:38;5.50;;;3.03;;
2724;SDS011;1370;52.596;13.112;2023-04-03T06:01:03;7.60;;;2.20;;
2724;SDS011;1370;52.596;13.112;2023-04-03T06:03:28;7.20;;;2.70;;
2724;SDS011;1370;52.596;13.112;2023-04-03T06:05:54;4.40;;;2.63;;
2724;SDS011;1370;52.596;13.112;2023-04-03T06:08:19;6.87;;;2.73;;
2724;SDS011;1370;52.596;13.112;2023-04-03T06:10:45;8.90;;;3.40;;
2724;SDS011;1370;52.596;13.112;2023-04-03T06:13:10;2.90;;;2.67;;
2724;SDS011;1370;52.596;13.112;2023-04-03T06:15:36;9.10;;;2.67;;
2724;SDS011;1370;52.596;13.112;2023-04-03T06:18:01;6.97;;;2.67;;
2724;SDS011;1370;52.596;13.112;2023-04-03T06:20:27;4.33;;;2.20;;
2724;SDS011;1370;52.596;13.112;2023-04-03T06:22:52;3.70;;;2.83;;
2724;SDS011;1370;52.596;13.112;2023-04-03T06:25:17;2.60;;;2.40;;
2724;SDS011;1370;52.596;13.112;2023-04-03T06:27:44;3.77;;;2.67;;
2724;SDS011;1370;52.596;13.112;2023-04-03T06:30:09;8.03;;;2.67;;
2724;SDS011;1370;52.596;13.112;2023-04-03T06:32:35;5.33;;;3.97;;
2724;SDS011;1370;52.596;13.112;2023-04-03T06:35:01;4.97;;;3.23;;
2724;SDS011;1370;52.596;13.112;2023-04-03T06:37:26;5.83;;;3.20;;
2724;SDS011;1370;52.596;13.112;2023-04-03T06:39:53;6.43;;;3.30;;
2724;SDS011;1370;52.596;13.112;2023-04-03T06:42:19;6.23;;;2.90;;
2724;SDS011;1370;52.596;13.112;2023-04-03T06:44:45;6.23;;;2.13;;
2724;SDS011;1370;52.596;13.112;2023-04-03T06:47:11;3.20;;;2.90;;
2724;SDS011;1370;52.596;13.112;2023-04-03T06:49:37;6.40;;;4.20;;
2724;SDS011;1370;52.596;13.112;2023-04-03T06:52:02;5.03;;;4.03;;
2724;SDS011;1370;52.596;13.112;2023-04-03T06:54:28;9.80;;;3.47;;
2724;SDS011;1370;52.596;13.112;2023-04-03T06:56:53;12.93;;;3.07;;
2724;SDS011;1370;52.596;13.112;2023-04-03T06:59:18;9.13;;;3.20;;
2724;SDS011;1370;52.596;13.112;2023-04-03T07:01:44;4.17;;;3.70;;
2724;SDS011;1370;52.596;13.112;2023-04-03T07:04:10;3.00;;;2.57;;
2724;SDS011;1370;52.596;13.112;2023-04-03T07:06:35;11.33;;;8.80;;
2724;SDS011;1370;52.596;13.112;2023-04-03T07:09:01;12.90;;;11.60;;
2724;SDS011;1370;52.596;13.112;2023-04-03T07:11:26;13.13;;;4.20;;
2724;SDS011;1370;52.596;13.112;2023-04-03T07:13:52;7.73;;;2.70;;
2724;SDS011;1370;52.596;13.112;2023-04-03T07:16:18;7.90;;;3.07;;
2724;SDS011;1370;52.596;13.112;2023-04-03T07:18:43;5.73;;;3.90;;
2724;SDS011;1370;52.596;13.112;2023-04-03T07:21:09;2.73;;;1.80;;
2724;SDS011;1370;52.596;13.112;2023-04-03T07:23:35;4.50;;;2.20;;
2724;SDS011;1370;52.596;13.112;2023-04-03T07:26:00;11.47;;;5.00;;
2724;SDS011;1370;52.596;13.112;2023-04-03T07:28:26;3.63;;;2.60;;
2724;SDS011;1370;52.596;13.112;2023-04-03T07:30:52;4.33;;;1.73;;
2724;SDS011;1370;52.596;13.112;2023-04-03T07:33:21;10.00;;;2.27;;
2724;SDS011;1370;52.596;13.112;2023-04-03T07:35:47;11.23;;;2.27;;
2724;SDS011;1370;52.596;13.112;2023-04-03T07:38:12;9.23;;;2.30;;
2724;SDS011;1370;52.596;13.112;2023-04-03T07:40:38;6.20;;;1.50;;
2724;SDS011;1370;52.596;13.112;2023-04-03T07:43:03;3.30;;;1.50;;
2724;SDS011;1370;52.596;13.112;2023-04-03T07:45:29;2.00;;;1.70;;
2724;SDS011;1370;52.596;13.112;2023-04-03T07:47:54;5.33;;;1.47;;
2724;SDS011;1370;52.596;13.112;2023-04-03T07:50:21;7.03;;;3.10;;
2724;SDS011;1370;52.596;13.112;2023-04-03T07:52:47;8.93;;;5.13;;
2724;SDS011;1370;52.596;13.112;2023-04-03T07:55:13;5.50;;;4.07;;
2724;SDS011;1370;52.596;13.112;2023-04-03T07:57:38;3.97;;;2.87;;
2724;SDS011;1370;52.596;13.112;2023-04-03T08:00:04;3.50;;;1.67;;
2724;SDS011;1370;52.596;13.112;2023-04-03T08:02:30;3.60;;;2.80;;
2724;SDS011;1370;52.596;13.112;2023-04-03T08:04:56;11.13;;;3.60;;
2724;SDS011;1370;52.596;13.112;2023-04-03T08:07:25;5.40;;;1.90;;
2724;SDS011;1370;52.596;13.112;2023-04-03T08:09:50;4.03;;;3.73;;
2724;SDS011;1370;52.596;13.112;2023-04-03T08:12:16;2.90;;;2.20;;
2724;SDS011;1370;52.596;13.112;2023-04-03T08:14:41;4.60;;;2.07;;
2724;SDS011;1370;52.596;13.112;2023-04-03T08:17:06;2.27;;;2.07;;
2724;SDS011;1370;52.596;13.112;2023-04-03T08:19:34;2.70;;;2.00;;
2724;SDS011;1370;52.596;13.112;2023-04-03T08:21:59;1.77;;;1.40;;
2724;SDS011;1370;52.596;13.112;2023-04-03T08:24:27;2.20;;;1.80;;
2724;SDS011;1370;52.596;13.112;2023-04-03T08:26:53;5.70;;;1.67;;
2724;SDS011;1370;52.596;13.112;2023-04-03T08:29:18;3.17;;;1.67;;
2724;SDS011;1370;52.596;13.112;2023-04-03T08:31:43;2.87;;;1.77;;
2724;SDS011;1370;52.596;13.112;2023-04-03T08:34:09;4.43;;;1.87;;
2724;SDS011;1370;52.596;13.112;2023-04-03T08:36:36;9.60;;;2.47;;
2724;SDS011;1370;52.596;13.112;2023-04-03T08:39:02;9.00;;;2.27;;
2724;SDS011;1370;52.596;13.112;2023-04-03T08:41:34;2.43;;;1.80;;
2724;SDS011;1370;52.596;13.112;2023-04-03T08:46:52;5.50;;;2.20;;
2724;SDS011;1370;52.596;13.112;2023-04-03T08:52:13;4.33;;;1.93;;
2724;SDS011;1370;52.596;13.112;2023-04-03T08:54:59;3.20;;;1.43;;
2724;SDS011;1370;52.596;13.112;2023-04-03T08:57:49;2.33;;;1.20;;
2724;SDS011;1370;52.596;13.112;2023-04-03T09:02:49;5.90;;;4.20;;
2724;SDS011;1370;52.596;13.112;2023-04-03T09:05:20;4.93;;;1.77;;
2724;SDS011;1370;52.596;13.112;2023-04-03T09:07:57;1.83;;;1.63;;
2724;SDS011;1370;52.596;13.112;2023-04-03T09:10:30;11.17;;;1.57;;
2724;SDS011;1370;52.596;13.112;2023-04-03T09:13:10;3.50;;;1.60;;
2724;SDS011;1370;52.596;13.112;2023-04-03T09:15:41;2.00;;;1.67;;
2724;SDS011;1370;52.596;13.112;2023-04-03T09:21:01;3.20;;;1.40;;
2724;SDS011;1370;52.596;13.112;2023-04-03T09:23:30;6.93;;;2.27;;
2724;SDS011;1370;52.596;13.112;2023-04-03T09:26:09;6.77;;;3.67;;
2724;SDS011;1370;52.596;13.112;2023-04-03T09:28:39;4.07;;;2.33;;
2724;SDS011;1370;52.596;13.112;2023-04-03T09:31:18;2.97;;;2.57;;
2724;SDS011;1370;52.596;13.112;2023-04-03T09:33:46;2.33;;;2.13;;
2724;SDS011;1370;52.596;13.112;2023-04-03T09:36:36;5.10;;;2.57;;
2724;SDS011;1370;52.596;13.112;2023-04-03T09:39:13;7.30;;;4.00;;
2724;SDS011;1370;52.596;13.112;2023-04-03T09:41:40;2.03;;;1.60;;
2724;SDS011;1370;52.596;13.112;2023-04-03T09:44:17;2.30;;;2.10;;
2724;SDS011;1370;52.596;13.112;2023-04-03T09:46:47;2.50;;;2.00;;
2724;SDS011;1370;52.596;13.112;2023-04-03T09:49:12;3.17;;;1.60;;
2724;SDS011;1370;52.596;13.112;2023-04-03T09:51:38;5.00;;;3.67;;
2724;SDS011;1370;52.596;13.112;2023-04-03T09:54:23;3.07;;;2.77;;
2724;SDS011;1370;52.596;13.112;2023-04-03T09:56:56;5.53;;;5.03;;
2724;SDS011;1370;52.596;13.112;2023-04-03T09:59:25;5.80;;;3.83;;
2724;SDS011;1370;52.596;13.112;2023-04-03T10:04:58;4.60;;;1.40;;
2724;SDS011;1370;52.596;13.112;2023-04-03T10:07:27;9.80;;;8.60;;
2724;SDS011;1370;52.596;13.112;2023-04-03T10:10:24;4.87;;;2.83;;
2724;SDS011;1370;52.596;13.112;2023-04-03T10:15:39;2.60;;;1.60;;
2724;SDS011;1370;52.596;13.112;2023-04-03T10:18:15;2.37;;;1.37;;
2724;SDS011;1370;52.596;13.112;2023-04-03T10:20:51;2.77;;;1.37;;
2724;SDS011;1370;52.596;13.112;2023-04-03T10:23:18;6.23;;;2.90;;
2724;SDS011;1370;52.596;13.112;2023-04-03T10:25:50;6.53;;;2.57;;
2724;SDS011;1370;52.596;13.112;2023-04-03T10:28:43;2.00;;;1.60;;
2724;SDS011;1370;52.596;13.112;2023-04-03T10:31:26;2.53;;;1.67;;
2724;SDS011;1370;52.596;13.112;2023-04-03T10:36:37;8.10;;;1.50;;
2724;SDS011;1370;52.596;13.112;2023-04-03T10:42:11;3.03;;;1.97;;
2724;SDS011;1370;52.596;13.112;2023-04-03T10:50:05;1.90;;;1.60;;
2724;SDS011;1370;52.596;13.112;2023-04-03T10:52:41;2.63;;;2.20;;
2724;SDS011;1370;52.596;13.112;2023-04-03T10:57:58;2.90;;;2.07;;
2724;SDS011;1370;52.596;13.112;2023-04-03T11:00:26;1.90;;;1.60;;
2724;SDS011;1370;52.596;13.112;2023-04-03T11:03:00;1.70;;;1.40;;
2724;SDS011;1370;52.596;13.112;2023-04-03T11:07:57;4.37;;;1.80;;
2724;SDS011;1370;52.596;13.112;2023-04-03T11:13:02;1.80;;;1.40;;
2724;SDS011;1370;52.596;13.112;2023-04-03T11:15:33;1.87;;;1.50;;
2724;SDS011;1370;52.596;13.112;2023-04-03T11:18:02;2.07;;;1.87;;
2724;SDS011;1370;52.596;13.112;2023-04-03T11:20:30;5.03;;;1.37;;
2724;SDS011;1370;52.596;13.112;2023-04-03T11:23:00;3.17;;;1.63;;
2724;SDS011;1370;52.596;13.112;2023-04-03T11:25:29;2.83;;;2.63;;
2724;SDS011;1370;52.596;13.112;2023-04-03T11:35:34;2.73;;;2.53;;
2724;SDS011;1370;52.596;13.112;2023-04-03T11:38:00;2.40;;;1.87;;
2724;SDS011;1370;52.596;13.112;2023-04-03T11:40:28;7.10;;;1.70;;
2724;SDS011;1370;52.596;13.112;2023-04-03T11:45:34;2.37;;;1.80;;
2724;SDS011;1370;52.596;13.112;2023-04-03T11:50:43;3.57;;;1.50;;
2724;SDS011;1370;52.596;13.112;2023-04-03T11:55:46;13.37;;;1.93;;
2724;SDS011;1370;52.596;13.112;2023-04-03T12:00:54;1.93;;;1.50;;
2724;SDS011;1370;52.596;13.112;2023-04-03T12:14:20;4.93;;;1.40;;
2724;SDS011;1370;52.596;13.112;2023-04-03T12:18:55;2.77;;;1.67;;
2724;SDS011;1370;52.596;13.112;2023-04-03T12:26:33;2.17;;;1.43;;
2724;SDS011;1370;52.596;13.112;2023-04-03T12:29:23;8.23;;;2.10;;
2724;SDS011;1370;52.596;13.112;2023-04-03T12:34:26;6.60;;;1.83;;
2724;SDS011;1370;52.596;13.112;2023-04-03T12:37:07;3.80;;;1.60;;
2724;SDS011;1370;52.596;13.112;2023-04-03T12:39:48;2.67;;;2.00;;
2724;SDS011;1370;52.596;13.112;2023-04-03T12:42:22;2.27;;;1.20;;
2724;SDS011;1370;52.596;13.112;2023-04-03T12:44:56;4.40;;;1.73;;
2724;SDS011;1370;52.596;13.112;2023-04-03T12:47:34;3.30;;;2.07;;
2724;SDS011;1370;52.596;13.112;2023-04-03T12:50:02;2.20;;;1.30;;
2724;SDS011;1370;52.596;13.112;2023-04-03T12:52:31;5.50;;;1.20;;
2724;SDS011;1370;52.596;13.112;2023-04-03T12:54:59;6.10;;;1.27;;
2724;SDS011;1370;52.596;13.112;2023-04-03T12:57:28;2.73;;;1.23;;
2724;SDS011;1370;52.596;13.112;2023-04-03T12:59:54;2.00;;;1.60;;
2724;SDS011;1370;52.596;13.112;2023-04-03T13:02:26;1.50;;;0.97;;
2724;SDS011;1370;52.596;13.112;2023-04-03T13:04:54;4.53;;;1.33;;
2724;SDS011;1370;52.596;13.112;2023-04-03T13:07:24;4.40;;;1.50;;
2724;SDS011;1370;52.596;13.112;2023-04-03T13:09:57;1.70;;;1.00;;
2724;SDS011;1370;52.596;13.112;2023-04-03T13:12:24;2.73;;;1.90;;
2724;SDS011;1370;52.596;13.112;2023-04-03T13:14:57;2.20;;;1.50;;
2724;SDS011;1370;52.596;13.112;2023-04-03T13:17:24;1.70;;;1.27;;
2724;SDS011;1370;52.596;13.112;2023-04-03T13:19:50;7.00;;;3.57;;
2724;SDS011;1370;52.596;13.112;2023-04-03T13:24:56;4.13;;;2.10;;
2724;SDS011;1370;52.596;13.112;2023-04-03T13:27:24;3.00;;;1.27;;
2724;SDS011;1370;52.596;13.112;2023-04-03T13:29:51;4.47;;;2.43;;
2724;SDS011;1370;52.596;13.112;2023-04-03T13:32:22;3.57;;;2.20;;
2724;SDS011;1370;52.596;13.112;2023-04-03T13:34:49;4.17;;;2.33;;
2724;SDS011;1370;52.596;13.112;2023-04-03T13:39:56;3.90;;;1.93;;
2724;SDS011;1370;52.596;13.112;2023-04-03T13:42:29;2.93;;;1.70;;
2724;SDS011;1370;52.596;13.112;2023-04-03T13:47:53;5.20;;;1.33;;
2724;SDS011;1370;52.596;13.112;2023-04-03T13:50:32;3.17;;;1.67;;
2724;SDS011;1370;52.596;13.112;2023-04-03T13:53:02;4.20;;;1.53;;
2724;SDS011;1370;52.596;13.112;2023-04-03T13:55:30;5.20;;;2.10;;
2724;SDS011;1370;52.596;13.112;2023-04-03T14:02:55;8.60;;;1.70;;
2724;SDS011;1370;52.596;13.112;2023-04-03T14:05:22;5.10;;;2.73;;
2724;SDS011;1370;52.596;13.112;2023-04-03T14:07:49;3.10;;;2.20;;
2724;SDS011;1370;52.596;13.112;2023-04-03T14:10:15;3.20;;;1.40;;
2724;SDS011;1370;52.596;13.112;2023-04-03T14:12:41;6.23;;;2.30;;
2724;SDS011;1370;52.596;13.112;2023-04-03T14:15:17;3.80;;;1.83;;
2724;SDS011;1370;52.596;13.112;2023-04-03T14:17:45;4.50;;;1.70;;
2724;SDS011;1370;52.596;13.112;2023-04-03T14:20:15;9.17;;;6.53;;
2724;SDS011;1370;52.596;13.112;2023-04-03T14:22:45;29.30;;;19.00;;
2724;SDS011;1370;52.596;13.112;2023-04-03T14:25:11;13.53;;;11.53;;
2724;SDS011;1370;52.596;13.112;2023-04-03T14:27:40;12.10;;;10.90;;
2724;SDS011;1370;52.596;13.112;2023-04-03T14:30:08;7.13;;;5.17;;
2724;SDS011;1370;52.596;13.112;2023-04-03T14:32:38;47.30;;;29.90;;
2724;SDS011;1370;52.596;13.112;2023-04-03T14:35:03;18.80;;;14.50;;
2724;SDS011;1370;52.596;13.112;2023-04-03T14:37:30;12.20;;;10.93;;
2724;SDS011;1370;52.596;13.112;2023-04-03T14:39:57;11.93;;;10.80;;
2724;SDS011;1370;52.596;13.112;2023-04-03T14:42:25;19.33;;;11.80;;
2724;SDS011;1370;52.596;13.112;2023-04-03T14:44:55;36.20;;;24.00;;
2724;SDS011;1370;52.596;13.112;2023-04-03T14:47:23;33.20;;;17.43;;
2724;SDS011;1370;52.596;13.112;2023-04-03T14:49:49;33.90;;;28.17;;
2724;SDS011;1370;52.596;13.112;2023-04-03T14:52:26;9.43;;;8.40;;
2724;SDS011;1370;52.596;13.112;2023-04-03T14:55:00;4.00;;;3.70;;
2724;SDS011;1370;52.596;13.112;2023-04-03T14:57:29;7.10;;;2.57;;
2724;SDS011;1370;52.596;13.112;2023-04-03T14:59:54;2.20;;;2.00;;
2724;SDS011;1370;52.596;13.112;2023-04-03T15:05:02;3.60;;;2.37;;
2724;SDS011;1370;52.596;13.112;2023-04-03T15:07:30;4.63;;;2.03;;
2724;SDS011;1370;52.596;13.112;2023-04-03T15:10:00;7.33;;;1.80;;
2724;SDS011;1370;52.596;13.112;2023-04-03T15:12:27;2.80;;;2.50;;
2724;SDS011;1370;52.596;13.112;2023-04-03T15:14:52;2.93;;;1.37;;
2724;SDS011;1370;52.596;13.112;2023-04-03T15:17:19;2.53;;;1.80;;
2724;SDS011;1370;52.596;13.112;2023-04-03T15:19:46;3.13;;;2.00;;
2724;SDS011;1370;52.596;13.112;2023-04-03T15:22:16;4.70;;;2.50;;
2724;SDS011;1370;52.596;13.112;2023-04-03T15:24:43;1.50;;;1.33;;
2724;SDS011;1370;52.596;13.112;2023-04-03T15:27:09;3.87;;;2.17;;
2724;SDS011;1370;52.596;13.112;2023-04-03T15:29:35;1.60;;;1.20;;
2724;SDS011;1370;52.596;13.112;2023-04-03T15:32:01;2.80;;;2.27;;
2724;SDS011;1370;52.596;13.112;2023-04-03T15:34:27;3.20;;;2.37;;
2724;SDS011;1370;52.596;13.112;2023-04-03T15:36:52;2.37;;;2.17;;
2724;SDS011;1370;52.596;13.112;2023-04-03T15:39:18;8.30;;;3.07;;
2724;SDS011;1370;52.596;13.112;2023-04-03T15:41:43;4.50;;;3.13;;
2724;SDS011;1370;52.596;13.112;2023-04-03T15:44:10;6.23;;;3.47;;
2724;SDS011;1370;52.596;13.112;2023-04-03T15:46:36;5.10;;;3.83;;
2724;SDS011;1370;52.596;13.112;2023-04-03T15:49:02;3.97;;;2.20;;
2724;SDS011;1370;52.596;13.112;2023-04-03T15:51:27;4.20;;;2.80;;
2724;SDS011;1370;52.596;13.112;2023-04-03T15:53:52;6.80;;;2.83;;
2724;SDS011;1370;52.596;13.112;2023-04-03T15:56:18;4.13;;;3.73;;
2724;SDS011;1370;52.596;13.112;2023-04-03T15:58:43;5.47;;;3.10;;
2724;SDS011;1370;52.596;13.112;2023-04-03T16:01:09;3.43;;;2.63;;
2724;SDS011;1370;52.596;13.112;2023-04-03T16:03:35;4.20;;;2.50;;
2724;SDS011;1370;52.596;13.112;2023-04-03T16:06:01;2.67;;;2.33;;
2724;SDS011;1370;52.596;13.112;2023-04-03T16:08:26;8.77;;;3.00;;
2724;SDS011;1370;52.596;13.112;2023-04-03T16:10:51;7.60;;;2.30;;
2724;SDS011;1370;52.596;13.112;2023-04-03T16:13:17;9.33;;;4.40;;
2724;SDS011;1370;52.596;13.112;2023-04-03T16:15:42;2.70;;;2.50;;
2724;SDS011;1370;52.596;13.112;2023-04-03T16:18:08;2.47;;;2.27;;
2724;SDS011;1370;52.596;13.112;2023-04-03T16:20:34;7.47;;;2.87;;
2724;SDS011;1370;52.596;13.112;2023-04-03T16:22:59;17.30;;;9.53;;
2724;SDS011;1370;52.596;13.112;2023-04-03T16:25:25;5.97;;;5.37;;
2724;SDS011;1370;52.596;13.112;2023-04-03T16:27:51;6.20;;;4.23;;
2724;SDS011;1370;52.596;13.112;2023-04-03T16:30:16;5.50;;;3.33;;
2724;SDS011;1370;52.596;13.112;2023-04-03T16:32:41;8.30;;;3.27;;
2724;SDS011;1370;52.596;13.112;2023-04-03T16:35:07;4.97;;;3.33;;
2724;SDS011;1370;52.596;13.112;2023-04-03T16:37:35;3.97;;;1.83;;